Wood River, IL (62095)

7:03 AM CDT on June 23, 2017 (GMT -0500)
Wood River (West End) | | Change Station

Elev 446 ft 38.87 °N, 90.10 °W | Updated 33 seconds ago

Mostly Cloudy
Mostly Cloudy
78.1 °F
Feels Like 81 °F
N
0.0
Wind Variable Wind from SE

Today
High -- | Low -- °F
--% Chance of Precip.
Yesterday
High -- | Low -- °F
Precip. -- in
Pressure 29.71 in
Visibility 10.0 miles
Clouds Scattered Clouds 2300 ft
Mostly Cloudy 6000 ft
Heat Index 81 °F
Dew Point 72 °F
Humidity 83%
Rainfall 0.00 in
Snow Depth Not available.
5:35 AM 8:29 PM
Waning Crescent, 1% visible
METAR KALN 231150Z 23005KT 10SM SCT023 BKN060 24/23 A2971
Pressure 29.71 in
Visibility 10.0 miles
Clouds Scattered Clouds 2300 ft
Mostly Cloudy 6000 ft
Heat Index 81 °F
Dew Point 72 °F
Humidity 83%
Rainfall 0.00 in
Snow Depth Not available.
5:35 AM 8:29 PM
Waning Crescent, 1% visible
METAR KALN 231150Z 23005KT 10SM SCT023 BKN060 24/23 A2971

Get Severe Weather Alerts

Thanks for signing up!

Be on the lookout for a verification email in your inbox.

You'll start receiving the daily forecast at 6 AM.

×

10-Day Weather Forecast

Almanac

Astronomy

Jun. 23, 2017 Rise Set
Actual Time
Civil Twilight
Nautical Twilight
Astronomical Twilight
Moon
Length of Visible Light
Length of Day
Tomorrow will be .
, % of the Moon is Illuminated

Today's Extremes

State Highs State Lows

Community

WunderPhotos

Category 6

Welcome to Category 6. This is the collective home for Weather Underground's featured writeups by Dr. Jeff Masters (right), Bob Henson (left), Chris Burt, and other regular contributors.

Nearby

Air Quality

  Air Quality AQ Index Pollutant
Not available.

Snow Depth

Station Depth Elevation

Earthquake Activity

City Distance Mag. Time & Date
Minimum magnitude displayed is 2.5.

Coastal Water Temperatures

Place Temperature

Stations

Nearby Weather Stations

Station Location Temp. Windchill Dew Point Humidity Wind Precip. Elev Updated Type
                   

Watches & Warnings

There are currently no watches in effect.